Time;durP1;ratioP1;P1;durP2;ratioP2;P2;SDS_P1;SDS_P2;PMS_P1;PMS_P2;Temp;Humidity;BMP_temperature;BMP_pressure;BME280_temperature;BME280_humidity;BME280_pressure;Samples;Min_cycle;Max_cycle;Signal;HPM_P1;HPM_P2
2022/11/22 00:00:31;;;;;;;;;;;21.20;41.60;;;;;;484398;246;1669;-44
2022/11/22 00:02:33;;;;;;;;;;;21.20;41.50;;;;;;484333;246;1335;-44
2022/11/22 00:04:34;;;;;;;;;;;21.20;41.60;;;;;;484417;246;1298;-44
2022/11/22 00:06:36;;;;;;;;;;;21.20;41.60;;;;;;484377;246;1663;-44
2022/11/22 00:08:37;;;;;;;;;;;21.20;41.50;;;;;;484262;246;1687;-43
2022/11/22 00:10:39;;;;;;;;;;;21.20;41.60;;;;;;484356;246;2208;-44
2022/11/22 00:12:41;;;;;;;;;;;21.20;41.60;;;;;;484328;246;1953;-43
2022/11/22 00:14:42;;;;;;;;;;;21.20;41.60;;;;;;484572;246;1649;-44
2022/11/22 00:16:43;;;;;;;;;;;21.20;41.70;;;;;;484253;246;2042;-43
2022/11/22 00:18:45;;;;;;;;;;;21.20;41.70;;;;;;484470;246;2246;-44
2022/11/22 00:20:46;;;;;;;;;;;21.20;41.60;;;;;;484378;246;1642;-44
2022/11/22 00:22:48;;;;;;;;;;;21.20;41.60;;;;;;484259;246;2791;-42
2022/11/22 00:24:50;;;;;;;;;;;21.20;41.60;;;;;;484362;246;1356;-43
2022/11/22 00:26:50;;;;;;;;;;;21.20;41.70;;;;;;484303;246;2319;-41
2022/11/22 00:28:51;;;;;;;;;;;21.20;41.60;;;;;;484260;246;1224;-44
2022/11/22 00:30:53;;;;;;;;;;;21.20;41.60;;;;;;484462;246;2199;-40
2022/11/22 00:32:55;;;;;;;;;;;21.20;41.60;;;;;;484316;246;1268;-41
2022/11/22 00:34:56;;;;;;;;;;;21.30;41.50;;;;;;484385;246;1229;-41
2022/11/22 00:36:57;;;;;;;;;;;21.50;41.20;;;;;;484325;246;1689;-44
2022/11/22 00:39:02;;;;;;;;;;;21.60;40.80;;;;;;484648;246;1189;-44
2022/11/22 00:41:04;;;;;;;;;;;21.80;40.50;;;;;;484612;246;1262;-41
2022/11/22 00:43:05;;;;;;;;;;;21.90;40.30;;;;;;484570;246;1259;-44
2022/11/22 00:45:07;;;;;;;;;;;22.00;40.10;;;;;;484383;242;1505;-44
2022/11/22 00:47:08;;;;;;;;;;;22.10;39.90;;;;;;484537;246;1368;-41
2022/11/22 00:49:10;;;;;;;;;;;22.10;39.80;;;;;;484759;246;1270;-41
2022/11/22 00:51:11;;;;;;;;;;;22.20;39.70;;;;;;484303;246;2227;-45
2022/11/22 00:53:13;;;;;;;;;;;22.30;39.60;;;;;;484327;246;1443;-44
2022/11/22 00:55:15;;;;;;;;;;;22.30;39.50;;;;;;484363;246;1385;-44
2022/11/22 00:57:16;;;;;;;;;;;22.40;39.40;;;;;;484415;246;1306;-44
2022/11/22 00:59:17;;;;;;;;;;;22.40;39.30;;;;;;484296;246;3411;-44
2022/11/22 01:01:19;;;;;;;;;;;22.40;39.20;;;;;;484842;246;1976;-44
2022/11/22 01:03:20;;;;;;;;;;;22.50;39.20;;;;;;484315;246;1329;-44
2022/11/22 01:05:22;;;;;;;;;;;22.50;39.20;;;;;;484325;246;2811;-42
2022/11/22 01:07:23;;;;;;;;;;;22.50;39.10;;;;;;484270;246;1408;-44
2022/11/22 01:09:25;;;;;;;;;;;22.60;39.10;;;;;;484429;246;2199;-45
2022/11/22 01:11:26;;;;;;;;;;;22.60;39.10;;;;;;484690;246;2176;-44
2022/11/22 01:13:27;;;;;;;;;;;22.60;39.00;;;;;;484588;246;2161;-44
2022/11/22 01:15:29;;;;;;;;;;;22.70;39.00;;;;;;484373;246;1188;-44
2022/11/22 01:17:30;;;;;;;;;;;22.60;38.90;;;;;;484325;246;1622;-44
2022/11/22 01:19:32;;;;;;;;;;;22.70;38.90;;;;;;484354;246;1769;-42
2022/11/22 01:21:33;;;;;;;;;;;22.70;38.90;;;;;;484688;246;1702;-45
2022/11/22 01:23:34;;;;;;;;;;;22.70;38.90;;;;;;484311;246;1693;-42
2022/11/22 01:25:36;;;;;;;;;;;22.70;38.80;;;;;;484383;246;1470;-44
2022/11/22 01:27:37;;;;;;;;;;;22.80;38.80;;;;;;484299;246;1731;-43
2022/11/22 01:29:39;;;;;;;;;;;22.80;38.80;;;;;;484321;246;1698;-44
2022/11/22 01:31:40;;;;;;;;;;;22.80;38.80;;;;;;484334;246;2168;-44
2022/11/22 01:33:41;;;;;;;;;;;22.80;38.70;;;;;;484624;246;1446;-41
2022/11/22 01:35:43;;;;;;;;;;;22.80;38.70;;;;;;484337;246;1598;-41
2022/11/22 01:37:44;;;;;;;;;;;22.80;38.70;;;;;;484310;242;1627;-41
2022/11/22 01:39:45;;;;;;;;;;;22.90;38.60;;;;;;484510;246;1508;-44
2022/11/22 01:41:47;;;;;;;;;;;22.90;38.60;;;;;;484290;246;1871;-42
2022/11/22 01:43:48;;;;;;;;;;;22.90;38.60;;;;;;484555;246;1625;-42
2022/11/22 01:45:49;;;;;;;;;;;22.90;38.50;;;;;;484583;246;1439;-43
2022/11/22 01:47:51;;;;;;;;;;;22.90;38.50;;;;;;484457;246;1522;-43
2022/11/22 01:49:53;;;;;;;;;;;23.00;38.50;;;;;;484333;246;1453;-45
2022/11/22 01:51:54;;;;;;;;;;;23.00;38.50;;;;;;484697;246;2478;-44
2022/11/22 01:53:55;;;;;;;;;;;23.00;38.50;;;;;;484702;246;1461;-43
2022/11/22 01:55:57;;;;;;;;;;;23.00;38.40;;;;;;484446;246;1765;-44
2022/11/22 01:57:58;;;;;;;;;;;23.00;38.40;;;;;;484321;246;1421;-45
2022/11/22 02:00:00;;;;;;;;;;;23.00;38.40;;;;;;484364;246;1399;-44
2022/11/22 02:02:01;;;;;;;;;;;23.00;38.40;;;;;;484432;246;1211;-44
2022/11/22 02:04:02;;;;;;;;;;;23.10;38.40;;;;;;484598;246;1248;-41
2022/11/22 02:06:04;;;;;;;;;;;23.00;38.40;;;;;;484568;246;1466;-43
2022/11/22 02:08:05;;;;;;;;;;;23.10;38.40;;;;;;484880;246;1230;-44
2022/11/22 02:10:06;;;;;;;;;;;23.10;38.30;;;;;;484770;246;1540;-41
2022/11/22 02:12:08;;;;;;;;;;;23.10;38.40;;;;;;484427;246;2157;-44
2022/11/22 02:14:09;;;;;;;;;;;23.10;38.40;;;;;;484681;246;2143;-42
2022/11/22 02:16:11;;;;;;;;;;;23.10;38.30;;;;;;484863;246;1209;-44
2022/11/22 02:18:12;;;;;;;;;;;23.10;38.30;;;;;;484487;246;1310;-45
2022/11/22 02:20:15;;;;;;;;;;;23.10;38.30;;;;;;484415;246;1390;-44
2022/11/22 02:22:16;;;;;;;;;;;23.10;38.30;;;;;;484290;246;1913;-42
2022/11/22 02:24:17;;;;;;;;;;;23.10;38.20;;;;;;484503;242;1309;-42
2022/11/22 02:26:19;;;;;;;;;;;23.10;38.30;;;;;;484606;242;1241;-44
2022/11/22 02:28:20;;;;;;;;;;;23.20;38.30;;;;;;484426;246;1247;-45
2022/11/22 02:30:22;;;;;;;;;;;23.20;38.30;;;;;;484283;246;1241;-44
2022/11/22 02:32:23;;;;;;;;;;;23.20;38.30;;;;;;484285;246;2204;-44
2022/11/22 02:34:25;;;;;;;;;;;23.20;38.20;;;;;;484486;246;1457;-41
2022/11/22 02:36:26;;;;;;;;;;;23.20;38.30;;;;;;484329;246;3171;-42
2022/11/22 02:38:28;;;;;;;;;;;23.20;38.30;;;;;;484266;246;1400;-45
2022/11/22 02:40:30;;;;;;;;;;;23.20;38.30;;;;;;484616;246;1264;-44
2022/11/22 02:42:31;;;;;;;;;;;23.20;38.40;;;;;;484449;246;1298;-44
2022/11/22 02:44:33;;;;;;;;;;;23.10;38.50;;;;;;484269;246;1222;-44
2022/11/22 02:46:34;;;;;;;;;;;22.90;38.70;;;;;;484449;246;1695;-45
2022/11/22 02:48:36;;;;;;;;;;;22.80;39.10;;;;;;484492;246;1189;-45
2022/11/22 02:50:37;;;;;;;;;;;22.60;39.30;;;;;;484527;246;1203;-41
2022/11/22 02:52:40;;;;;;;;;;;22.50;39.60;;;;;;484394;246;2148;-42
2022/11/22 02:54:41;;;;;;;;;;;22.40;39.80;;;;;;484629;246;2253;-40
2022/11/22 02:56:42;;;;;;;;;;;22.30;40.00;;;;;;484755;246;1258;-43
2022/11/22 02:58:44;;;;;;;;;;;22.20;40.10;;;;;;484322;246;1206;-41
2022/11/22 03:00:45;;;;;;;;;;;22.20;40.20;;;;;;484310;246;1776;-44
2022/11/22 03:02:46;;;;;;;;;;;22.10;40.30;;;;;;484284;246;1378;-44
2022/11/22 03:04:48;;;;;;;;;;;22.10;40.40;;;;;;484420;246;1584;-42
2022/11/22 03:06:49;;;;;;;;;;;22.00;40.50;;;;;;484328;246;1334;-44
2022/11/22 03:08:51;;;;;;;;;;;22.00;40.60;;;;;;484223;246;1255;-41
2022/11/22 03:10:52;;;;;;;;;;;22.00;40.60;;;;;;484473;246;1285;-44
2022/11/22 03:12:53;;;;;;;;;;;22.00;40.70;;;;;;484253;246;2203;-41
2022/11/22 03:14:55;;;;;;;;;;;22.00;40.80;;;;;;484402;246;1294;-44
2022/11/22 03:16:56;;;;;;;;;;;21.90;40.70;;;;;;484527;246;1325;-44
2022/11/22 03:18:58;;;;;;;;;;;22.00;40.80;;;;;;484334;246;1258;-41
2022/11/22 03:20:59;;;;;;;;;;;21.90;40.80;;;;;;484330;246;1721;-44
2022/11/22 03:23:00;;;;;;;;;;;21.80;40.90;;;;;;484340;246;1308;-44
2022/11/22 03:25:02;;;;;;;;;;;21.80;40.90;;;;;;484625;246;2737;-44
2022/11/22 03:27:03;;;;;;;;;;;21.80;41.00;;;;;;484563;246;1324;-44
2022/11/22 03:29:04;;;;;;;;;;;21.80;41.00;;;;;;484593;246;1381;-41
2022/11/22 03:31:06;;;;;;;;;;;21.80;41.00;;;;;;484309;246;1242;-43
2022/11/22 03:33:07;;;;;;;;;;;21.80;41.00;;;;;;484264;246;2156;-43
2022/11/22 03:35:09;;;;;;;;;;;21.80;41.00;;;;;;484488;246;1199;-44
2022/11/22 03:37:10;;;;;;;;;;;21.80;41.00;;;;;;484325;246;1375;-43
2022/11/22 03:39:12;;;;;;;;;;;21.80;41.00;;;;;;484693;246;1577;-44
2022/11/22 03:41:13;;;;;;;;;;;21.80;41.10;;;;;;484680;246;1257;-44
2022/11/22 03:43:14;;;;;;;;;;;21.70;41.10;;;;;;484332;246;1330;-44
2022/11/22 03:45:16;;;;;;;;;;;21.70;41.20;;;;;;484507;246;1814;-41
2022/11/22 03:47:17;;;;;;;;;;;21.70;41.20;;;;;;484317;246;1615;-44
2022/11/22 03:49:19;;;;;;;;;;;21.70;41.20;;;;;;484746;246;1447;-44
2022/11/22 03:51:21;;;;;;;;;;;21.70;41.20;;;;;;484294;246;1705;-45
2022/11/22 03:53:23;;;;;;;;;;;21.60;41.20;;;;;;484511;246;2112;-44
2022/11/22 03:55:25;;;;;;;;;;;21.60;41.20;;;;;;484298;246;1195;-44
2022/11/22 03:57:26;;;;;;;;;;;21.70;41.30;;;;;;484268;246;2160;-41
2022/11/22 03:59:28;;;;;;;;;;;21.60;41.20;;;;;;484235;246;1481;-44
2022/11/22 04:01:29;;;;;;;;;;;21.60;41.30;;;;;;484272;246;1253;-44
2022/11/22 04:03:31;;;;;;;;;;;21.60;41.30;;;;;;484338;246;1397;-44
2022/11/22 04:05:32;;;;;;;;;;;21.60;41.30;;;;;;484285;246;1222;-44
2022/11/22 04:07:33;;;;;;;;;;;21.60;41.40;;;;;;484727;246;1284;-44
2022/11/22 04:09:35;;;;;;;;;;;21.60;41.40;;;;;;484730;246;1815;-44
2022/11/22 04:11:36;;;;;;;;;;;21.60;41.40;;;;;;484734;246;1428;-44
2022/11/22 04:15:57;;;;;;;;;;;21.50;41.40;;;;;;484358;242;1235;-44
2022/11/22 04:17:59;;;;;;;;;;;21.50;41.40;;;;;;484261;246;1185;-44
2022/11/22 04:22:21;;;;;;;;;;;21.50;41.50;;;;;;484373;246;1295;-41
2022/11/22 04:26:42;;;;;;;;;;;21.50;41.50;;;;;;484283;246;1392;-45
2022/11/22 04:28:43;;;;;;;;;;;21.50;41.40;;;;;;484288;246;1371;-44
2022/11/22 04:33:04;;;;;;;;;;;21.50;41.50;;;;;;484203;246;2148;-44
2022/11/22 04:35:05;;;;;;;;;;;21.50;41.50;;;;;;484605;246;1280;-44
2022/11/22 04:37:06;;;;;;;;;;;21.50;41.50;;;;;;484177;246;1682;-44
2022/11/22 04:39:08;;;;;;;;;;;21.50;41.50;;;;;;484179;246;1680;-44
2022/11/22 04:41:10;;;;;;;;;;;21.50;41.50;;;;;;484306;246;1652;-44
2022/11/22 04:45:32;;;;;;;;;;;21.50;41.50;;;;;;468388;242;1539;-44
2022/11/22 04:49:53;;;;;;;;;;;21.40;41.60;;;;;;484426;243;1359;-44
2022/11/22 04:54:13;;;;;;;;;;;21.50;41.60;;;;;;484354;246;1537;-42
2022/11/22 04:56:15;;;;;;;;;;;21.50;41.60;;;;;;484712;246;1338;-44
2022/11/22 04:58:16;;;;;;;;;;;21.50;41.50;;;;;;484441;246;1577;-41
2022/11/22 05:00:18;;;;;;;;;;;21.40;41.60;;;;;;484484;242;1616;-44
2022/11/22 05:02:19;;;;;;;;;;;21.40;41.60;;;;;;484340;246;1733;-44
2022/11/22 05:04:21;;;;;;;;;;;21.40;41.60;;;;;;484732;246;1205;-44
2022/11/22 05:06:22;;;;;;;;;;;21.40;41.50;;;;;;484723;246;1251;-44
2022/11/22 05:08:24;;;;;;;;;;;21.40;41.70;;;;;;484677;246;1893;-44
2022/11/22 05:10:25;;;;;;;;;;;21.40;41.60;;;;;;484270;246;1734;-44
2022/11/22 05:12:26;;;;;;;;;;;21.40;41.60;;;;;;484337;246;2196;-42
2022/11/22 05:14:28;;;;;;;;;;;21.40;41.60;;;;;;484212;246;2458;-43
2022/11/22 05:16:29;;;;;;;;;;;21.40;41.60;;;;;;484475;246;1195;-40
2022/11/22 05:18:30;;;;;;;;;;;21.40;41.60;;;;;;484222;246;1351;-44
2022/11/22 05:20:32;;;;;;;;;;;21.40;41.60;;;;;;484685;246;1266;-44
2022/11/22 05:24:54;;;;;;;;;;;21.40;41.70;;;;;;484293;246;1368;-44
2022/11/22 05:27:00;;;;;;;;;;;21.40;41.70;;;;;;484205;246;1176;-44
2022/11/22 05:29:00;;;;;;;;;;;21.40;41.70;;;;;;484136;246;1905;-44
2022/11/22 05:31:01;;;;;;;;;;;21.40;41.60;;;;;;484352;246;1259;-44
2022/11/22 05:33:03;;;;;;;;;;;21.40;41.70;;;;;;484374;246;2184;-44
2022/11/22 05:35:04;;;;;;;;;;;21.30;41.70;;;;;;484480;246;1158;-44
2022/11/22 05:37:06;;;;;;;;;;;21.40;41.70;;;;;;484399;246;1449;-44
2022/11/22 05:39:08;;;;;;;;;;;21.40;41.70;;;;;;484340;246;1231;-44
2022/11/22 05:41:09;;;;;;;;;;;21.40;41.70;;;;;;484301;246;2825;-42
2022/11/22 05:43:13;;;;;;;;;;;21.40;41.70;;;;;;484331;246;2249;-44
2022/11/22 05:45:15;;;;;;;;;;;21.40;41.60;;;;;;484210;246;1217;-44
2022/11/22 05:47:16;;;;;;;;;;;21.40;41.60;;;;;;484146;246;2211;-44
2022/11/22 05:49:18;;;;;;;;;;;21.30;41.60;;;;;;484632;246;1221;-44
2022/11/22 05:51:19;;;;;;;;;;;21.30;41.60;;;;;;484433;246;1369;-44
2022/11/22 05:53:20;;;;;;;;;;;21.40;41.70;;;;;;484389;246;2192;-44
2022/11/22 05:55:22;;;;;;;;;;;21.40;41.70;;;;;;484272;246;1211;-41
2022/11/22 05:57:23;;;;;;;;;;;21.40;41.60;;;;;;484178;246;1216;-44
2022/11/22 05:59:24;;;;;;;;;;;21.40;41.70;;;;;;484188;246;1266;-44
2022/11/22 06:01:26;;;;;;;;;;;21.40;41.70;;;;;;484227;246;1319;-44
2022/11/22 06:03:28;;;;;;;;;;;21.40;41.60;;;;;;484134;246;1284;-41
2022/11/22 06:05:29;;;;;;;;;;;21.40;41.60;;;;;;484214;246;1264;-44
2022/11/22 06:07:31;;;;;;;;;;;21.30;41.60;;;;;;484420;246;1234;-43
2022/11/22 06:09:32;;;;;;;;;;;21.30;41.60;;;;;;484192;246;1276;-44
2022/11/22 06:11:34;;;;;;;;;;;21.40;41.70;;;;;;484743;246;1210;-44
2022/11/22 06:13:35;;;;;;;;;;;21.40;41.70;;;;;;484601;246;2195;-44
2022/11/22 06:15:37;;;;;;;;;;;21.30;41.70;;;;;;484263;242;1234;-44
2022/11/22 06:17:38;;;;;;;;;;;21.30;41.60;;;;;;484116;246;1534;-44
2022/11/22 06:19:40;;;;;;;;;;;21.30;41.70;;;;;;484427;246;1254;-42
2022/11/22 06:21:42;;;;;;;;;;;21.30;41.70;;;;;;484290;246;1654;-44
2022/11/22 06:23:43;;;;;;;;;;;21.30;41.60;;;;;;484182;246;1354;-44
2022/11/22 06:25:45;;;;;;;;;;;21.30;41.60;;;;;;484210;246;1231;-43
2022/11/22 06:27:46;;;;;;;;;;;21.30;41.60;;;;;;484353;246;1584;-44
2022/11/22 06:29:47;;;;;;;;;;;21.30;41.60;;;;;;484263;246;1231;-44
2022/11/22 06:31:49;;;;;;;;;;;21.40;41.70;;;;;;484265;246;2673;-43
2022/11/22 06:33:51;;;;;;;;;;;21.40;41.70;;;;;;484267;246;2200;-40
2022/11/22 06:35:52;;;;;;;;;;;21.30;41.60;;;;;;484129;246;1410;-44
2022/11/22 06:37:53;;;;;;;;;;;21.40;41.70;;;;;;484117;246;1535;-43
2022/11/22 06:39:55;;;;;;;;;;;21.30;41.70;;;;;;484156;246;1530;-44
2022/11/22 06:41:56;;;;;;;;;;;21.30;41.70;;;;;;484193;246;1300;-44
2022/11/22 06:43:57;;;;;;;;;;;21.40;41.70;;;;;;484176;246;1306;-44
2022/11/22 06:48:21;;;;;;;;;;;21.40;41.70;;;;;;484044;246;1566;-44
2022/11/22 06:50:23;;;;;;;;;;;21.40;41.70;;;;;;484104;246;1197;-44
2022/11/22 06:52:25;;;;;;;;;;;21.40;41.70;;;;;;484030;242;1377;-44
2022/11/22 06:54:26;;;;;;;;;;;21.30;41.70;;;;;;484081;246;2222;-44
2022/11/22 06:56:27;;;;;;;;;;;21.30;41.70;;;;;;484545;246;1405;-44
2022/11/22 06:58:28;;;;;;;;;;;21.30;41.70;;;;;;484106;246;1307;-44
2022/11/22 07:00:30;;;;;;;;;;;21.30;41.70;;;;;;484088;246;1228;-44
2022/11/22 07:02:32;;;;;;;;;;;21.30;41.70;;;;;;484144;246;1243;-44
2022/11/22 07:04:33;;;;;;;;;;;21.30;41.70;;;;;;484033;246;1375;-44
2022/11/22 07:06:35;;;;;;;;;;;21.30;41.70;;;;;;484135;246;1233;-44
2022/11/22 07:08:36;;;;;;;;;;;21.30;41.70;;;;;;483887;246;1465;-44
2022/11/22 07:10:37;;;;;;;;;;;21.30;41.70;;;;;;483906;242;1247;-44
2022/11/22 07:12:39;;;;;;;;;;;21.30;41.70;;;;;;483799;246;1225;-44
2022/11/22 07:14:40;;;;;;;;;;;21.30;41.70;;;;;;484069;246;2155;-44
2022/11/22 07:16:42;;;;;;;;;;;21.30;41.70;;;;;;484093;246;1212;-44
2022/11/22 07:18:43;;;;;;;;;;;21.30;41.70;;;;;;484145;246;1235;-44
2022/11/22 07:20:45;;;;;;;;;;;21.30;41.70;;;;;;483967;246;1201;-44
2022/11/22 07:22:46;;;;;;;;;;;21.30;41.60;;;;;;483929;246;1936;-44
2022/11/22 07:24:47;;;;;;;;;;;21.30;41.70;;;;;;483875;246;1409;-44
2022/11/22 07:26:49;;;;;;;;;;;21.30;41.70;;;;;;484033;246;1173;-45
2022/11/22 07:28:51;;;;;;;;;;;21.30;41.70;;;;;;483936;246;1253;-44
2022/11/22 07:30:53;;;;;;;;;;;21.30;41.70;;;;;;483876;246;1259;-44
2022/11/22 07:32:54;;;;;;;;;;;21.30;41.60;;;;;;483843;242;2203;-45
2022/11/22 07:34:55;;;;;;;;;;;21.30;41.70;;;;;;483812;246;1204;-44
2022/11/22 07:36:58;;;;;;;;;;;21.30;41.60;;;;;;483769;246;1205;-44
2022/11/22 07:38:59;;;;;;;;;;;21.30;41.60;;;;;;483972;246;1255;-44
2022/11/22 07:41:00;;;;;;;;;;;21.30;41.60;;;;;;483643;246;1302;-42
2022/11/22 07:43:02;;;;;;;;;;;21.30;41.60;;;;;;483641;246;1224;-44
2022/11/22 07:45:03;;;;;;;;;;;21.30;41.60;;;;;;483761;246;1084;-44
2022/11/22 07:47:04;;;;;;;;;;;21.30;41.60;;;;;;483986;246;1571;-44
2022/11/22 07:49:06;;;;;;;;;;;21.30;41.60;;;;;;483928;246;1587;-41
2022/11/22 07:51:07;;;;;;;;;;;21.30;41.60;;;;;;483944;246;1358;-44
2022/11/22 07:53:09;;;;;;;;;;;21.30;41.60;;;;;;483886;246;2187;-44
2022/11/22 07:55:10;;;;;;;;;;;21.30;41.70;;;;;;483678;246;1565;-44
2022/11/22 07:57:12;;;;;;;;;;;21.30;41.70;;;;;;483473;246;1289;-44
2022/11/22 07:59:13;;;;;;;;;;;21.30;41.70;;;;;;483552;246;1335;-44
2022/11/22 08:01:15;;;;;;;;;;;21.30;41.60;;;;;;483716;246;1389;-44
2022/11/22 08:03:16;;;;;;;;;;;21.30;41.60;;;;;;483691;246;1620;-44
2022/11/22 08:05:18;;;;;;;;;;;21.30;41.60;;;;;;483844;246;1290;-41
2022/11/22 08:07:19;;;;;;;;;;;21.30;41.60;;;;;;483502;246;1550;-41
2022/11/22 08:09:20;;;;;;;;;;;21.30;41.60;;;;;;483730;246;1321;-44
2022/11/22 08:11:22;;;;;;;;;;;21.30;41.60;;;;;;483650;246;1271;-44
2022/11/22 08:13:23;;;;;;;;;;;21.30;41.60;;;;;;483830;246;2196;-44
2022/11/22 08:15:25;;;;;;;;;;;21.30;41.60;;;;;;484027;246;1397;-44
2022/11/22 08:17:26;;;;;;;;;;;21.30;41.60;;;;;;484092;246;1418;-44
2022/11/22 08:19:27;;;;;;;;;;;21.30;41.60;;;;;;483950;246;1357;-44
2022/11/22 08:21:29;;;;;;;;;;;21.30;41.60;;;;;;483887;246;2866;-44
2022/11/22 08:23:30;;;;;;;;;;;21.30;41.60;;;;;;483816;246;1937;-44
2022/11/22 08:25:32;;;;;;;;;;;21.30;41.60;;;;;;483860;246;1297;-44
2022/11/22 08:27:33;;;;;;;;;;;21.30;41.60;;;;;;483822;246;1574;-44
2022/11/22 08:29:34;;;;;;;;;;;21.30;41.50;;;;;;483754;246;1395;-41
2022/11/22 08:31:36;;;;;;;;;;;21.30;41.60;;;;;;484008;246;1398;-44
2022/11/22 08:33:37;;;;;;;;;;;21.30;41.60;;;;;;483891;246;2184;-44
2022/11/22 08:35:38;;;;;;;;;;;21.30;41.60;;;;;;483841;246;1263;-44
2022/11/22 08:37:40;;;;;;;;;;;21.30;41.60;;;;;;483959;246;1809;-44
2022/11/22 08:39:41;;;;;;;;;;;21.30;41.60;;;;;;483840;246;1364;-44
2022/11/22 08:41:43;;;;;;;;;;;21.30;41.60;;;;;;483742;246;1863;-42
2022/11/22 08:43:44;;;;;;;;;;;21.30;41.60;;;;;;483750;246;1430;-44
2022/11/22 08:45:46;;;;;;;;;;;21.30;41.60;;;;;;483686;246;1197;-41
2022/11/22 08:47:48;;;;;;;;;;;21.40;41.70;;;;;;483706;246;1225;-44
2022/11/22 08:49:49;;;;;;;;;;;21.30;41.60;;;;;;483626;246;1280;-44
2022/11/22 08:51:51;;;;;;;;;;;21.30;41.60;;;;;;483620;246;1427;-44
2022/11/22 08:53:53;;;;;;;;;;;21.40;41.60;;;;;;483746;246;2196;-44
2022/11/22 08:55:54;;;;;;;;;;;21.30;41.60;;;;;;483685;246;1281;-44
2022/11/22 08:57:56;;;;;;;;;;;21.30;41.60;;;;;;483901;246;1407;-44
2022/11/22 08:59:57;;;;;;;;;;;21.30;41.60;;;;;;483770;246;1335;-44
2022/11/22 09:01:58;;;;;;;;;;;21.30;41.60;;;;;;483794;246;1876;-44
2022/11/22 09:04:00;;;;;;;;;;;21.30;41.60;;;;;;483787;246;1174;-44
2022/11/22 09:06:03;;;;;;;;;;;21.30;41.60;;;;;;483863;246;1348;-44
2022/11/22 09:08:04;;;;;;;;;;;21.30;41.60;;;;;;483707;246;1279;-44
2022/11/22 09:10:07;;;;;;;;;;;21.30;41.60;;;;;;484128;246;1250;-45
2022/11/22 09:12:07;;;;;;;;;;;21.30;41.60;;;;;;483835;246;1412;-44
2022/11/22 09:14:09;;;;;;;;;;;21.30;41.60;;;;;;483858;246;2144;-44
2022/11/22 09:16:10;;;;;;;;;;;21.30;41.70;;;;;;483923;246;1174;-44
2022/11/22 09:18:11;;;;;;;;;;;21.30;41.70;;;;;;483940;246;1259;-44
2022/11/22 09:20:13;;;;;;;;;;;21.30;41.60;;;;;;483530;246;1235;-44
2022/11/22 09:22:14;;;;;;;;;;;21.30;41.70;;;;;;483624;246;1197;-44
2022/11/22 09:24:16;;;;;;;;;;;21.30;41.70;;;;;;483973;246;1196;-44
2022/11/22 09:26:17;;;;;;;;;;;21.30;41.70;;;;;;483837;246;1565;-44
2022/11/22 09:28:19;;;;;;;;;;;21.30;41.70;;;;;;483951;246;1361;-44
2022/11/22 09:30:21;;;;;;;;;;;21.30;41.60;;;;;;484031;246;2043;-44
2022/11/22 09:32:23;;;;;;;;;;;21.30;41.60;;;;;;484036;246;1325;-44
2022/11/22 09:34:24;;;;;;;;;;;21.30;41.60;;;;;;483989;242;2382;-44
2022/11/22 09:36:26;;;;;;;;;;;21.30;41.70;;;;;;483946;246;1381;-44
2022/11/22 09:38:27;;;;;;;;;;;21.30;41.60;;;;;;484229;246;1180;-44
2022/11/22 09:40:28;;;;;;;;;;;21.30;41.60;;;;;;483976;246;1900;-44
2022/11/22 09:42:30;;;;;;;;;;;21.30;41.60;;;;;;484000;246;1253;-44
2022/11/22 09:44:32;;;;;;;;;;;21.30;41.70;;;;;;483952;246;1337;-45
2022/11/22 09:46:33;;;;;;;;;;;21.30;41.70;;;;;;483706;246;1300;-44
2022/11/22 09:48:35;;;;;;;;;;;21.30;41.70;;;;;;483667;246;1339;-44
2022/11/22 09:50:36;;;;;;;;;;;21.30;41.70;;;;;;483803;246;1241;-44
2022/11/22 09:52:37;;;;;;;;;;;21.30;41.70;;;;;;483909;246;1208;-44
2022/11/22 09:54:39;;;;;;;;;;;21.30;41.70;;;;;;483980;246;2152;-44
2022/11/22 09:56:41;;;;;;;;;;;21.30;41.70;;;;;;484033;246;1343;-44
2022/11/22 09:58:42;;;;;;;;;;;21.30;41.70;;;;;;483941;246;1291;-43
2022/11/22 10:00:44;;;;;;;;;;;21.30;41.70;;;;;;483918;246;1688;-44
2022/11/22 10:02:45;;;;;;;;;;;21.30;41.70;;;;;;483634;246;1224;-45
2022/11/22 10:04:47;;;;;;;;;;;21.30;41.60;;;;;;483863;246;1254;-44
2022/11/22 10:06:48;;;;;;;;;;;21.30;41.70;;;;;;484013;246;1240;-44
2022/11/22 10:08:50;;;;;;;;;;;21.30;41.70;;;;;;483924;246;1338;-45
2022/11/22 10:10:51;;;;;;;;;;;21.30;41.70;;;;;;483889;246;1194;-44
2022/11/22 10:12:52;;;;;;;;;;;21.30;41.70;;;;;;483696;246;1540;-44
2022/11/22 10:14:54;;;;;;;;;;;21.30;41.70;;;;;;483940;246;2203;-44
2022/11/22 10:16:55;;;;;;;;;;;21.30;41.70;;;;;;484135;246;1386;-44
2022/11/22 10:18:56;;;;;;;;;;;21.30;41.80;;;;;;483808;246;1616;-44
2022/11/22 10:20:58;;;;;;;;;;;21.30;41.70;;;;;;483851;246;1189;-44
2022/11/22 10:22:59;;;;;;;;;;;21.30;41.70;;;;;;483653;246;1197;-44
2022/11/22 10:25:00;;;;;;;;;;;21.30;41.70;;;;;;483854;246;1205;-44
2022/11/22 10:27:02;;;;;;;;;;;21.30;41.80;;;;;;484005;246;1275;-42
2022/11/22 10:29:03;;;;;;;;;;;21.30;41.80;;;;;;483791;246;1194;-44
2022/11/22 10:31:05;;;;;;;;;;;21.30;41.80;;;;;;483992;246;1314;-44
2022/11/22 10:33:06;;;;;;;;;;;21.30;41.70;;;;;;483880;246;1701;-42
2022/11/22 10:35:08;;;;;;;;;;;21.40;41.70;;;;;;483779;246;2168;-44
2022/11/22 10:37:09;;;;;;;;;;;21.30;41.60;;;;;;483795;246;1228;-44
2022/11/22 10:39:11;;;;;;;;;;;21.30;41.70;;;;;;483821;246;1542;-44
2022/11/22 10:41:12;;;;;;;;;;;21.30;41.60;;;;;;483802;246;1593;-44
2022/11/22 10:43:13;;;;;;;;;;;21.30;41.60;;;;;;484042;246;1302;-44
2022/11/22 10:45:15;;;;;;;;;;;21.30;41.90;;;;;;483844;246;1979;-44
2022/11/22 10:47:17;;;;;;;;;;;21.30;41.70;;;;;;483996;246;1339;-44
2022/11/22 10:49:18;;;;;;;;;;;21.40;41.80;;;;;;483945;246;1411;-44
2022/11/22 10:51:20;;;;;;;;;;;21.30;41.70;;;;;;483801;246;1363;-44
2022/11/22 10:53:21;;;;;;;;;;;21.30;41.70;;;;;;484078;246;2033;-41
2022/11/22 10:55:23;;;;;;;;;;;21.40;41.70;;;;;;483715;246;2282;-44
2022/11/22 10:57:24;;;;;;;;;;;21.40;41.70;;;;;;483888;246;1467;-44
2022/11/22 10:59:25;;;;;;;;;;;21.30;41.70;;;;;;483934;246;1318;-44
2022/11/22 11:01:27;;;;;;;;;;;21.30;41.60;;;;;;483822;245;1382;-44
2022/11/22 11:03:28;;;;;;;;;;;21.40;41.60;;;;;;483801;246;1259;-40
2022/11/22 11:05:29;;;;;;;;;;;21.30;41.60;;;;;;483880;246;1303;-45
2022/11/22 11:07:31;;;;;;;;;;;21.30;41.60;;;;;;483907;242;1550;-41
2022/11/22 11:09:32;;;;;;;;;;;21.30;41.60;;;;;;483911;246;1170;-44
2022/11/22 11:11:34;;;;;;;;;;;21.30;41.60;;;;;;483800;246;1183;-40
2022/11/22 11:13:36;;;;;;;;;;;21.30;41.60;;;;;;484158;246;1368;-44
2022/11/22 11:15:37;;;;;;;;;;;21.30;41.60;;;;;;483750;246;2208;-44
2022/11/22 11:17:39;;;;;;;;;;;21.30;41.60;;;;;;483703;246;1276;-44
2022/11/22 11:19:40;;;;;;;;;;;21.30;41.60;;;;;;483948;246;1188;-44
2022/11/22 11:21:42;;;;;;;;;;;21.30;41.60;;;;;;483639;242;1314;-44
2022/11/22 11:23:44;;;;;;;;;;;21.30;41.50;;;;;;483838;246;1351;-41
2022/11/22 11:25:45;;;;;;;;;;;21.30;41.50;;;;;;483837;246;1342;-44
2022/11/22 11:27:46;;;;;;;;;;;21.40;41.50;;;;;;484062;246;1299;-43
2022/11/22 11:29:48;;;;;;;;;;;21.30;41.50;;;;;;483944;246;1508;-41
2022/11/22 11:31:49;;;;;;;;;;;21.40;41.50;;;;;;483875;246;1646;-40
2022/11/22 11:33:51;;;;;;;;;;;21.30;41.50;;;;;;483454;246;1559;-44
2022/11/22 11:35:53;;;;;;;;;;;21.30;41.50;;;;;;483948;246;2169;-43
2022/11/22 11:37:54;;;;;;;;;;;21.30;41.50;;;;;;483810;246;3028;-44
2022/11/22 11:40:01;;;;;;;;;;;21.30;41.60;;;;;;483974;246;1358;-41
2022/11/22 11:42:03;;;;;;;;;;;21.30;41.60;;;;;;483869;246;1670;-43
2022/11/22 11:44:04;;;;;;;;;;;21.30;41.60;;;;;;484007;246;1295;-44
2022/11/22 11:46:05;;;;;;;;;;;21.30;41.60;;;;;;483906;246;1488;-44
2022/11/22 11:48:07;;;;;;;;;;;21.30;41.60;;;;;;483890;246;1360;-44
2022/11/22 11:50:08;;;;;;;;;;;21.30;41.60;;;;;;483970;246;1400;-44
2022/11/22 11:52:10;;;;;;;;;;;21.30;41.60;;;;;;483814;246;1271;-44
2022/11/22 11:54:11;;;;;;;;;;;21.30;41.60;;;;;;483868;246;2028;-44
2022/11/22 11:56:13;;;;;;;;;;;21.30;41.60;;;;;;483746;246;2109;-44
2022/11/22 11:58:14;;;;;;;;;;;21.30;41.60;;;;;;483897;246;1235;-44
2022/11/22 12:00:16;;;;;;;;;;;21.30;41.60;;;;;;483852;246;1224;-44
2022/11/22 12:02:17;;;;;;;;;;;21.30;41.60;;;;;;483683;246;1603;-44
2022/11/22 12:04:18;;;;;;;;;;;21.30;41.60;;;;;;483676;246;1261;-44
2022/11/22 12:06:20;;;;;;;;;;;21.30;41.60;;;;;;483696;246;1337;-44
2022/11/22 12:08:21;;;;;;;;;;;21.30;41.50;;;;;;483822;246;1315;-44
2022/11/22 12:10:22;;;;;;;;;;;21.30;41.50;;;;;;483690;246;1294;-44
2022/11/22 12:12:24;;;;;;;;;;;21.30;41.60;;;;;;483717;246;1324;-44
2022/11/22 12:14:25;;;;;;;;;;;21.30;41.60;;;;;;483899;246;1257;-44
2022/11/22 12:16:26;;;;;;;;;;;21.30;41.60;;;;;;483772;246;2140;-44
2022/11/22 12:18:28;;;;;;;;;;;21.30;41.60;;;;;;483573;246;1302;-44